createdAt,value
2022-07-27T00:01:02.177Z,15.36
2022-07-27T00:02:03.106Z,15.39
2022-07-27T00:03:02.455Z,15.39
2022-07-27T00:04:02.659Z,15.40
2022-07-27T00:05:03.327Z,15.40
2022-07-27T00:06:03.508Z,15.37
2022-07-27T00:07:03.921Z,15.36
2022-07-27T00:08:02.306Z,15.36
2022-07-27T00:09:04.489Z,15.39
2022-07-27T00:10:04.676Z,15.39
2022-07-27T00:11:03.276Z,15.39
2022-07-27T00:12:05.474Z,15.37
2022-07-27T00:13:03.879Z,15.40
2022-07-27T00:14:06.058Z,15.40
2022-07-27T00:15:04.432Z,15.43
2022-07-27T00:16:04.814Z,15.43
2022-07-27T00:17:08.879Z,15.44
2022-07-27T00:18:05.428Z,15.44
2022-07-27T00:19:09.043Z,15.44
2022-07-27T00:20:07.796Z,15.46
2022-07-27T00:21:06.303Z,15.44
2022-07-27T00:22:07.591Z,15.43
2022-07-27T00:23:06.850Z,15.42
2022-07-27T00:24:09.067Z,15.42
2022-07-27T00:25:09.199Z,15.39
2022-07-27T00:26:07.706Z,15.36
2022-07-27T00:27:11.860Z,15.39
2022-07-27T00:28:08.271Z,15.37
2022-07-27T00:29:08.869Z,15.31
2022-07-27T00:30:10.769Z,15.35
2022-07-27T00:31:09.192Z,15.33
2022-07-27T00:32:13.300Z,15.28
2022-07-27T00:33:09.707Z,15.25
2022-07-27T00:34:10.021Z,15.21
2022-07-27T00:35:10.318Z,15.17
2022-07-27T00:36:12.504Z,15.18
2022-07-27T00:37:12.801Z,15.17
2022-07-27T00:38:11.202Z,15.11
2022-07-27T00:39:11.828Z,15.07
2022-07-27T00:40:11.800Z,15.04
2022-07-27T00:41:13.994Z,15.02
2022-07-27T00:42:14.379Z,14.97
2022-07-27T00:43:12.640Z,14.89
2022-07-27T00:44:12.952Z,14.82
2022-07-27T00:45:15.129Z,14.77
2022-07-27T00:46:13.577Z,14.84
2022-07-27T00:47:17.673Z,14.86
2022-07-27T00:48:14.090Z,15.00
2022-07-27T00:49:15.116Z,15.00
2022-07-27T00:50:16.581Z,15.00
2022-07-27T00:51:14.969Z,14.92
2022-07-27T00:52:16.236Z,14.99
2022-07-27T00:53:17.471Z,14.96
2022-07-27T00:54:15.865Z,14.89
2022-07-27T00:55:16.164Z,14.84
2022-07-27T00:56:16.475Z,14.86
2022-07-27T00:57:17.796Z,14.84
2022-07-27T00:58:19.014Z,14.81
2022-07-27T00:59:17.271Z,14.73
2022-07-27T01:00:19.465Z,14.78
2022-07-27T01:01:17.905Z,14.79
2022-07-27T01:02:20.179Z,14.82
2022-07-27T01:03:20.218Z,14.82
2022-07-27T01:04:19.740Z,14.81
2022-07-27T01:05:19.015Z,14.81
2022-07-27T01:06:24.884Z,14.89
2022-07-27T01:07:22.486Z,14.92
2022-07-27T01:08:21.668Z,14.99
2022-07-27T01:09:20.298Z,15.02
2022-07-27T01:10:20.604Z,15.00
2022-07-27T01:11:22.788Z,15.00
2022-07-27T01:12:22.973Z,14.99
2022-07-27T01:13:24.598Z,15.06
2022-07-27T01:14:21.756Z,15.14
2022-07-27T01:15:24.002Z,15.18
2022-07-27T01:16:25.787Z,15.25
2022-07-27T01:17:24.408Z,15.24
2022-07-27T01:18:24.586Z,15.24
2022-07-27T01:19:24.774Z,15.25
2022-07-27T01:20:24.550Z,15.22
2022-07-27T01:21:25.250Z,15.19
2022-07-27T01:22:25.017Z,15.15
2022-07-27T01:23:24.271Z,15.10
2022-07-27T01:24:26.441Z,15.09
2022-07-27T01:25:24.833Z,15.03
2022-07-27T01:26:25.158Z,15.00
2022-07-27T01:27:25.470Z,14.97
2022-07-27T01:28:25.786Z,14.92
2022-07-27T01:29:27.976Z,14.94
2022-07-27T01:30:26.371Z,14.91
2022-07-27T01:31:27.610Z,14.89
2022-07-27T01:32:28.010Z,14.84
2022-07-27T01:33:28.162Z,14.82
2022-07-27T01:34:29.430Z,14.82
2022-07-27T01:35:27.821Z,14.88
2022-07-27T01:36:29.995Z,14.91
2022-07-27T01:37:30.920Z,14.97
2022-07-27T01:38:28.689Z,15.00
2022-07-27T01:39:29.003Z,15.00
2022-07-27T01:40:31.158Z,15.06
2022-07-27T01:41:29.555Z,15.07
2022-07-27T01:42:31.720Z,15.04
2022-07-27T01:43:30.112Z,15.09
2022-07-27T01:44:32.281Z,15.10
2022-07-27T01:45:31.625Z,15.10
2022-07-27T01:46:31.802Z,15.07
2022-07-27T01:47:33.213Z,15.11
2022-07-27T01:48:32.668Z,15.06
2022-07-27T01:49:33.793Z,15.02
2022-07-27T01:50:32.179Z,15.02
2022-07-27T01:51:33.349Z,15.07
2022-07-27T01:52:32.731Z,15.10
2022-07-27T01:53:33.044Z,15.09
2022-07-27T01:54:34.246Z,15.06
2022-07-27T01:55:35.813Z,15.03
2022-07-27T01:56:35.958Z,15.03
2022-07-27T01:57:34.213Z,15.07
2022-07-27T01:58:36.393Z,15.07
2022-07-27T01:59:36.577Z,15.04
2022-07-27T02:00:35.085Z,14.99
2022-07-27T02:01:36.261Z,14.99
2022-07-27T02:02:37.588Z,15.03
2022-07-27T02:03:37.778Z,15.00
2022-07-27T02:04:37.945Z,15.00
2022-07-27T02:05:38.177Z,15.04
2022-07-27T02:06:40.800Z,15.02
2022-07-27T02:07:37.230Z,15.04
2022-07-27T02:08:39.448Z,15.04
2022-07-27T02:09:39.607Z,15.09
2022-07-27T02:10:39.789Z,15.07
2022-07-27T02:11:39.361Z,15.06
2022-07-27T02:12:40.634Z,15.07
2022-07-27T02:13:39.018Z,15.07
2022-07-27T02:14:39.319Z,15.15
2022-07-27T02:15:43.466Z,15.19
2022-07-27T02:16:43.719Z,15.28
2022-07-27T02:17:40.130Z,15.33
2022-07-27T02:18:40.427Z,15.35
2022-07-27T02:19:42.616Z,15.35
2022-07-27T02:20:42.808Z,15.37
2022-07-27T02:21:42.241Z,15.40
2022-07-27T02:22:41.618Z,15.42
2022-07-27T02:23:41.932Z,15.42
2022-07-27T02:24:42.232Z,15.42
2022-07-27T02:25:44.420Z,15.49
2022-07-27T02:26:43.812Z,15.47
2022-07-27T02:27:43.051Z,15.51
2022-07-27T02:28:43.352Z,15.52
2022-07-27T02:29:45.552Z,15.51
2022-07-27T02:30:43.929Z,15.49
2022-07-27T02:31:47.635Z,15.52
2022-07-27T02:32:44.703Z,15.47
2022-07-27T02:33:44.833Z,15.51
2022-07-27T02:34:47.020Z,15.47
2022-07-27T02:35:45.410Z,15.43
2022-07-27T02:36:47.712Z,15.43
2022-07-27T02:37:46.005Z,15.43
2022-07-27T02:38:46.301Z,15.44
2022-07-27T02:39:46.624Z,15.46
2022-07-27T02:40:47.841Z,15.42
2022-07-27T02:41:49.345Z,15.43
2022-07-27T02:42:47.493Z,15.44
2022-07-27T02:43:48.836Z,15.43
2022-07-27T02:44:48.993Z,15.44
2022-07-27T02:45:48.469Z,15.43
2022-07-27T02:46:50.576Z,15.46
2022-07-27T02:47:48.963Z,15.44
2022-07-27T02:48:49.315Z,15.42
2022-07-27T02:49:49.581Z,15.42
2022-07-27T02:50:51.747Z,15.42
2022-07-27T02:51:52.170Z,15.43
2022-07-27T02:52:52.145Z,15.43
2022-07-27T02:53:50.772Z,15.47
2022-07-27T02:54:51.076Z,15.46
2022-07-27T02:55:53.237Z,15.44
2022-07-27T02:56:55.377Z,15.44
2022-07-27T02:57:51.939Z,15.47
2022-07-27T02:58:52.257Z,15.44
2022-07-27T02:59:52.747Z,15.42
2022-07-27T03:00:58.408Z,15.36
2022-07-27T03:01:56.157Z,15.33
2022-07-27T03:02:53.433Z,15.29
2022-07-27T03:03:53.844Z,15.28
2022-07-27T03:04:54.030Z,15.25
2022-07-27T03:05:54.358Z,15.21
2022-07-27T03:06:55.594Z,15.19
2022-07-27T03:07:54.868Z,15.19
2022-07-27T03:08:55.188Z,15.17
2022-07-27T03:09:55.509Z,15.14
2022-07-27T03:10:59.150Z,15.06
2022-07-27T03:11:58.950Z,15.04
2022-07-27T03:12:58.077Z,15.03
2022-07-27T03:13:57.471Z,15.03
2022-07-27T03:14:57.890Z,15.00
2022-07-27T03:15:58.137Z,14.94
2022-07-27T03:17:00.872Z,14.94
2022-07-27T03:17:59.613Z,14.92
2022-07-27T03:18:58.018Z,15.00
2022-07-27T03:19:58.360Z,15.03
2022-07-27T03:21:00.541Z,15.00
2022-07-27T03:21:58.955Z,14.92
2022-07-27T03:22:59.292Z,14.88
2022-07-27T03:24:02.939Z,14.86
2022-07-27T03:25:00.767Z,14.82
2022-07-27T03:26:00.288Z,14.81
2022-07-27T03:27:01.604Z,14.68
2022-07-27T03:28:04.371Z,14.55
2022-07-27T03:29:01.176Z,14.55
2022-07-27T03:30:02.336Z,14.60
2022-07-27T03:31:01.881Z,14.60
2022-07-27T03:32:04.193Z,14.63
2022-07-27T03:33:04.242Z,14.60
2022-07-27T03:34:04.435Z,14.66
2022-07-27T03:35:03.058Z,14.65
2022-07-27T03:36:03.397Z,14.63
2022-07-27T03:37:03.782Z,14.62
2022-07-27T03:38:03.991Z,14.59
2022-07-27T03:39:06.306Z,14.66
2022-07-27T03:40:06.382Z,14.70
2022-07-27T03:41:06.568Z,14.77
2022-07-27T03:42:07.073Z,14.73
2022-07-27T03:43:07.448Z,14.73
2022-07-27T03:44:07.787Z,14.81
2022-07-27T03:45:05.964Z,14.86
2022-07-27T03:46:06.416Z,14.88
2022-07-27T03:47:11.183Z,14.91
2022-07-27T03:48:08.416Z,14.94
2022-07-27T03:49:14.630Z,14.99
2022-07-27T03:50:10.235Z,14.97
2022-07-27T03:51:09.404Z,15.02
2022-07-27T03:52:17.490Z,15.09
2022-07-27T03:53:11.286Z,15.07
2022-07-27T03:54:08.597Z,15.07
2022-07-27T03:55:10.785Z,15.06
2022-07-27T03:56:10.941Z,15.10
2022-07-27T03:57:11.267Z,15.10
2022-07-27T03:58:11.328Z,15.10
2022-07-27T03:59:12.409Z,15.07
2022-07-27T04:00:10.300Z,15.09
2022-07-27T04:01:10.556Z,15.09
2022-07-27T04:02:14.282Z,15.14
2022-07-27T04:03:11.090Z,15.22
2022-07-27T04:04:13.282Z,15.27
2022-07-27T04:05:11.568Z,15.31
2022-07-27T04:06:11.797Z,15.33
2022-07-27T04:07:15.962Z,15.29
2022-07-27T04:08:14.202Z,15.28
2022-07-27T04:09:14.650Z,15.24
2022-07-27T04:10:14.581Z,15.21
2022-07-27T04:11:13.265Z,15.15
2022-07-27T04:12:17.480Z,15.09
2022-07-27T04:13:13.826Z,15.04
2022-07-27T04:14:14.155Z,15.02
2022-07-27T04:15:14.389Z,14.99
2022-07-27T04:16:14.674Z,14.96
2022-07-27T04:17:56.350Z,14.91
2022-07-27T04:18:16.203Z,14.97
2022-07-27T04:19:15.919Z,15.00
2022-07-27T04:20:15.772Z,15.06
2022-07-27T04:21:16.001Z,15.10
2022-07-27T04:22:19.655Z,15.14
2022-07-27T04:23:16.464Z,15.15
2022-07-27T04:24:16.695Z,15.17
2022-07-27T04:25:16.954Z,15.15
2022-07-27T04:26:19.114Z,15.15
2022-07-27T04:27:21.284Z,15.17
2022-07-27T04:28:19.528Z,15.17
2022-07-27T04:29:20.839Z,15.17
2022-07-27T04:30:18.348Z,15.15
2022-07-27T04:31:20.562Z,15.15
2022-07-27T04:32:20.679Z,15.15
2022-07-27T04:33:20.847Z,15.15
2022-07-27T04:34:21.042Z,15.14
2022-07-27T04:35:25.740Z,15.14
2022-07-27T04:36:20.950Z,15.11
2022-07-27T04:37:22.106Z,15.14
2022-07-27T04:38:22.287Z,15.15
2022-07-27T04:39:22.581Z,15.18
2022-07-27T04:40:21.125Z,15.18
2022-07-27T04:41:21.351Z,15.19
2022-07-27T04:42:21.611Z,15.19
2022-07-27T04:43:21.858Z,15.19
2022-07-27T04:44:24.019Z,15.19
2022-07-27T04:45:22.434Z,15.19
2022-07-27T04:46:22.761Z,15.22
2022-07-27T04:47:24.831Z,15.21
2022-07-27T04:48:23.253Z,15.21
2022-07-27T04:49:25.459Z,15.22
2022-07-27T04:50:23.738Z,15.24
2022-07-27T04:51:23.966Z,15.24
2022-07-27T04:52:26.530Z,15.19
2022-07-27T04:53:24.508Z,15.21
2022-07-27T04:54:26.695Z,15.18
2022-07-27T04:55:24.991Z,15.17
2022-07-27T04:56:25.522Z,15.10
2022-07-27T04:57:25.599Z,15.03
2022-07-27T04:58:25.829Z,15.00
2022-07-27T04:59:28.006Z,14.96
2022-07-27T05:00:26.329Z,14.96
2022-07-27T05:01:34.751Z,14.92
2022-07-27T05:02:27.819Z,14.91
2022-07-27T05:03:27.105Z,14.92
2022-07-27T05:04:30.387Z,14.96
2022-07-27T05:05:27.778Z,15.00
2022-07-27T05:06:28.013Z,15.03
2022-07-27T05:07:30.239Z,15.06
2022-07-27T05:08:28.531Z,15.10
2022-07-27T05:09:32.174Z,15.14
2022-07-27T05:10:28.995Z,15.15
2022-07-27T05:11:33.124Z,15.18
2022-07-27T05:12:32.834Z,15.19
2022-07-27T05:13:31.561Z,15.25
2022-07-27T05:14:30.115Z,15.25
2022-07-27T05:15:30.338Z,15.29
2022-07-27T05:16:33.563Z,15.35
2022-07-27T05:17:30.974Z,15.40
2022-07-27T05:18:33.175Z,15.44
2022-07-27T05:19:40.169Z,15.47
2022-07-27T05:20:32.833Z,15.54
2022-07-27T05:21:34.002Z,15.51
2022-07-27T05:22:39.452Z,15.55
2022-07-27T05:23:32.650Z,15.59
2022-07-27T05:24:33.012Z,15.64
2022-07-27T05:25:37.136Z,15.67
2022-07-27T05:26:34.464Z,15.65
2022-07-27T05:27:37.098Z,15.64
2022-07-27T05:28:35.824Z,15.62
2022-07-27T05:29:35.207Z,15.64
2022-07-27T05:30:36.541Z,15.61
2022-07-27T05:31:35.865Z,15.62
2022-07-27T05:32:37.153Z,15.64
2022-07-27T05:33:37.335Z,15.61
2022-07-27T05:34:37.493Z,15.59
2022-07-27T05:35:36.166Z,15.59
2022-07-27T05:36:37.349Z,15.67
2022-07-27T05:37:39.577Z,15.70
2022-07-27T05:38:38.743Z,15.72
2022-07-27T05:39:40.368Z,15.72
2022-07-27T05:40:37.421Z,15.72
2022-07-27T05:41:39.679Z,15.72
2022-07-27T05:42:38.120Z,15.67
2022-07-27T05:43:40.290Z,15.65
2022-07-27T05:44:38.711Z,15.59
2022-07-27T05:45:39.867Z,15.58
2022-07-27T05:46:40.232Z,15.54
2022-07-27T05:47:39.522Z,15.52
2022-07-27T05:48:41.740Z,15.49
2022-07-27T05:49:41.880Z,15.47
2022-07-27T05:50:40.414Z,15.47
2022-07-27T05:51:41.801Z,15.51
2022-07-27T05:52:41.077Z,15.51
2022-07-27T05:53:41.431Z,15.47
2022-07-27T05:54:42.648Z,15.44
2022-07-27T05:55:58.926Z,15.44
2022-07-27T05:56:43.172Z,15.43
2022-07-27T05:57:44.349Z,15.44
2022-07-27T05:58:44.506Z,15.40
2022-07-27T05:59:44.689Z,15.39
2022-07-27T06:00:44.402Z,15.37
2022-07-27T06:01:45.698Z,15.37
2022-07-27T06:02:43.885Z,15.36
2022-07-27T06:03:46.141Z,15.40
2022-07-27T06:04:46.244Z,15.35
2022-07-27T06:05:46.433Z,15.33
2022-07-27T06:06:47.023Z,15.35
2022-07-27T06:07:45.334Z,15.36
2022-07-27T06:08:45.566Z,15.36
2022-07-27T06:09:47.749Z,15.31
2022-07-27T06:10:47.510Z,15.28
2022-07-27T06:11:47.304Z,15.28
2022-07-27T06:12:46.713Z,15.27
2022-07-27T06:13:46.957Z,15.28
2022-07-27T06:14:50.930Z,15.28
2022-07-27T06:15:49.367Z,15.35
2022-07-27T06:16:47.840Z,15.40
2022-07-27T06:17:47.897Z,15.42
2022-07-27T06:18:50.085Z,15.47
2022-07-27T06:19:48.394Z,15.54
2022-07-27T06:20:50.668Z,15.59
2022-07-27T06:21:53.576Z,15.61
2022-07-27T06:22:49.138Z,15.72
2022-07-27T06:23:51.322Z,15.80
2022-07-27T06:24:49.623Z,15.84
2022-07-27T06:25:51.810Z,15.88
2022-07-27T06:26:53.002Z,15.95
2022-07-27T06:27:50.446Z,15.97
2022-07-27T06:28:52.627Z,16.04
2022-07-27T06:29:52.824Z,16.12
2022-07-27T06:30:51.246Z,16.15
2022-07-27T06:31:53.514Z,16.17
2022-07-27T06:32:51.832Z,16.21
2022-07-27T06:33:54.028Z,16.26
2022-07-27T06:34:52.368Z,16.23
2022-07-27T06:35:54.559Z,16.23
2022-07-27T06:36:53.073Z,16.26
2022-07-27T06:37:53.322Z,16.26
2022-07-27T06:38:53.560Z,16.26
2022-07-27T06:39:55.746Z,16.24
2022-07-27T06:40:54.059Z,16.24
2022-07-27T06:41:58.287Z,16.20
2022-07-27T06:42:54.529Z,16.20
2022-07-27T06:43:54.772Z,16.13
2022-07-27T06:44:56.963Z,16.13
2022-07-27T06:45:55.273Z,16.12
2022-07-27T06:46:57.082Z,16.12
2022-07-27T06:47:55.751Z,16.15
2022-07-27T06:48:56.017Z,16.24
2022-07-27T06:49:58.184Z,16.24
2022-07-27T06:50:58.347Z,16.23
2022-07-27T06:51:58.815Z,16.26
2022-07-27T06:52:57.131Z,16.21
2022-07-27T06:53:57.373Z,16.17
2022-07-27T06:54:57.614Z,16.15
2022-07-27T06:55:57.853Z,16.09
2022-07-27T06:56:59.128Z,15.98
2022-07-27T06:57:59.963Z,15.86
2022-07-27T06:58:58.775Z,15.86
2022-07-27T06:59:59.022Z,15.84
2022-07-27T07:00:59.396Z,15.88
2022-07-27T07:02:03.415Z,15.94
2022-07-27T07:02:59.864Z,15.94
2022-07-27T07:04:02.112Z,15.94
2022-07-27T07:05:00.411Z,15.94
2022-07-27T07:06:00.637Z,16.01
2022-07-27T07:07:07.280Z,16.08
2022-07-27T07:08:03.028Z,16.10
2022-07-27T07:09:03.209Z,16.13
2022-07-27T07:10:01.766Z,16.21
2022-07-27T07:11:02.001Z,16.32
2022-07-27T07:12:05.087Z,16.35
2022-07-27T07:13:04.356Z,16.42
2022-07-27T07:14:04.548Z,16.46
2022-07-27T07:15:03.109Z,16.57
2022-07-27T07:16:03.441Z,16.61
2022-07-27T07:17:05.651Z,16.71
2022-07-27T07:18:05.790Z,16.78
2022-07-27T07:19:04.229Z,16.69
2022-07-27T07:20:07.890Z,16.68
2022-07-27T07:21:06.615Z,16.76
2022-07-27T07:22:09.031Z,16.81
2022-07-27T07:23:07.236Z,16.76
2022-07-27T07:24:05.673Z,16.76
2022-07-27T07:25:07.827Z,16.72
2022-07-27T07:26:06.141Z,16.72
2022-07-27T07:27:10.302Z,16.81
2022-07-27T07:28:08.529Z,16.79
2022-07-27T07:29:07.807Z,16.76
2022-07-27T07:30:07.229Z,16.76
2022-07-27T07:31:07.507Z,16.81
2022-07-27T07:32:07.711Z,16.83
2022-07-27T07:33:09.891Z,16.81
2022-07-27T07:34:10.145Z,16.86
2022-07-27T07:35:08.460Z,16.90
2022-07-27T07:36:14.810Z,16.83
2022-07-27T07:37:08.958Z,16.76
2022-07-27T07:38:13.094Z,16.90
2022-07-27T07:39:12.757Z,17.01
2022-07-27T07:40:41.442Z,17.08
2022-07-27T07:41:12.497Z,16.97
2022-07-27T07:42:11.271Z,17.08
2022-07-27T07:43:12.515Z,17.16
2022-07-27T07:44:14.690Z,17.44
2022-07-27T07:45:12.163Z,17.48
2022-07-27T07:46:13.571Z,17.68
2022-07-27T07:47:12.795Z,17.59
2022-07-27T07:48:15.548Z,17.31
2022-07-27T07:49:17.069Z,17.09
2022-07-27T07:50:13.728Z,16.90
2022-07-27T07:51:14.052Z,16.65
2022-07-27T07:52:14.305Z,16.53
2022-07-27T07:53:14.732Z,16.42
2022-07-27T07:54:15.924Z,16.32
2022-07-27T07:55:15.303Z,16.33
2022-07-27T07:56:15.458Z,16.31
2022-07-27T07:57:15.878Z,16.31
2022-07-27T07:58:17.101Z,16.39
2022-07-27T07:59:15.750Z,16.56
2022-07-27T08:00:15.745Z,16.61
2022-07-27T08:01:16.039Z,16.58
2022-07-27T08:02:16.390Z,16.56
2022-07-27T08:03:16.688Z,16.50
2022-07-27T08:04:18.803Z,16.54
2022-07-27T08:05:19.087Z,16.61
2022-07-27T08:06:19.181Z,16.64
2022-07-27T08:07:19.892Z,16.71
2022-07-27T08:08:18.210Z,16.75
2022-07-27T08:09:20.387Z,16.89
2022-07-27T08:10:18.715Z,16.93
2022-07-27T08:11:18.943Z,16.89
2022-07-27T08:12:19.192Z,16.74
2022-07-27T08:13:22.153Z,16.65
2022-07-27T08:14:21.614Z,16.54
2022-07-27T08:15:19.919Z,16.35
2022-07-27T08:16:20.215Z,16.20
2022-07-27T08:17:20.449Z,16.01
2022-07-27T08:18:20.693Z,15.94
2022-07-27T08:19:20.932Z,16.01
2022-07-27T08:20:23.173Z,16.04
2022-07-27T08:21:21.481Z,16.04
2022-07-27T08:22:21.725Z,16.08
2022-07-27T08:23:21.976Z,16.13
2022-07-27T08:24:24.166Z,16.08
2022-07-27T08:25:24.353Z,16.05
2022-07-27T08:26:22.797Z,16.15
2022-07-27T08:27:24.953Z,16.26
2022-07-27T08:28:24.926Z,16.35
2022-07-27T08:29:23.609Z,16.38
2022-07-27T08:30:26.802Z,16.36
2022-07-27T08:31:51.496Z,16.32
2022-07-27T08:32:25.456Z,16.29
2022-07-27T08:33:24.654Z,16.31
2022-07-27T08:34:26.842Z,16.36
2022-07-27T08:35:27.016Z,16.28
2022-07-27T08:36:25.465Z,16.21
2022-07-27T08:37:27.607Z,16.12
2022-07-27T08:38:26.049Z,16.17
2022-07-27T08:40:40.259Z,16.21
2022-07-27T08:41:27.794Z,16.05
2022-07-27T08:42:27.099Z,16.00
2022-07-27T08:43:27.341Z,15.98
2022-07-27T08:44:27.587Z,15.90
2022-07-27T08:45:29.760Z,15.79
2022-07-27T08:46:28.104Z,15.65
2022-07-27T08:47:28.336Z,15.46
2022-07-27T08:48:29.409Z,15.24
2022-07-27T08:49:42.591Z,15.00
2022-07-27T08:50:32.030Z,14.86
2022-07-27T08:51:29.348Z,14.72
2022-07-27T08:52:29.591Z,14.69
2022-07-27T08:53:52.112Z,14.63
2022-07-27T08:54:31.140Z,14.63
2022-07-27T08:55:30.438Z,14.66
2022-07-27T08:56:32.621Z,14.66
2022-07-27T08:57:30.936Z,14.62
2022-07-27T08:58:32.036Z,14.77
2022-07-27T08:59:31.482Z,14.79
2022-07-27T09:00:33.681Z,14.86
2022-07-27T09:01:33.969Z,15.00
2022-07-27T09:02:32.535Z,15.04
2022-07-27T09:03:34.726Z,15.18
2022-07-27T09:04:34.887Z,15.36
2022-07-27T09:05:36.971Z,15.35
2022-07-27T09:06:35.374Z,15.55
2022-07-27T09:07:33.675Z,15.65
2022-07-27T09:08:37.837Z,15.90
2022-07-27T09:09:34.162Z,16.12
2022-07-27T09:10:34.404Z,16.17
2022-07-27T09:11:36.581Z,16.26
2022-07-27T09:12:34.899Z,16.31
2022-07-27T09:13:38.549Z,16.29
2022-07-27T09:14:35.373Z,16.17
2022-07-27T09:15:36.996Z,16.24
2022-07-27T09:17:21.850Z,16.21
2022-07-27T09:17:48.613Z,16.16
2022-07-27T09:18:39.354Z,15.92
2022-07-27T09:19:36.884Z,15.73
2022-07-27T09:20:37.005Z,15.55
2022-07-27T09:21:37.244Z,15.47
2022-07-27T09:22:37.487Z,15.40
2022-07-27T09:23:37.725Z,15.35
2022-07-27T09:24:47.909Z,15.39
2022-07-27T09:26:02.143Z,15.46
2022-07-27T09:26:39.526Z,15.65
2022-07-27T09:27:40.700Z,15.79
2022-07-27T09:28:39.903Z,15.91
2022-07-27T09:29:41.317Z,16.02
2022-07-27T09:30:39.924Z,16.16
2022-07-27T09:31:40.049Z,16.35
2022-07-27T09:32:40.275Z,16.35
2022-07-27T09:33:40.520Z,16.41
2022-07-27T09:34:43.271Z,16.42
2022-07-27T09:35:41.075Z,16.46
2022-07-27T09:36:41.311Z,16.51
2022-07-27T09:37:41.552Z,16.47
2022-07-27T09:38:43.841Z,16.47
2022-07-27T09:39:43.922Z,16.47
2022-07-27T09:40:42.372Z,16.47
2022-07-27T09:41:42.690Z,16.50
2022-07-27T09:43:08.940Z,16.50
2022-07-27T09:44:30.042Z,16.60
2022-07-27T09:44:45.299Z,16.64
2022-07-27T09:45:51.542Z,16.61
2022-07-27T09:46:46.963Z,16.53
2022-07-27T09:47:46.037Z,16.57
2022-07-27T09:48:45.279Z,16.78
2022-07-27T09:49:46.400Z,16.96
2022-07-27T09:51:01.511Z,17.08
2022-07-27T09:52:03.752Z,17.16
2022-07-27T09:52:46.624Z,17.23
2022-07-27T09:53:47.825Z,17.23
2022-07-27T09:54:47.992Z,17.20
2022-07-27T09:55:48.150Z,16.93
2022-07-27T09:56:48.832Z,16.93
2022-07-27T09:57:47.144Z,17.14
2022-07-27T09:58:47.386Z,17.20
2022-07-27T09:59:47.624Z,17.05
2022-07-27T10:00:49.783Z,17.05
2022-07-27T10:01:54.494Z,16.96
2022-07-27T10:02:51.125Z,16.99
2022-07-27T10:03:50.337Z,16.94
2022-07-27T10:04:49.105Z,16.93
2022-07-27T10:05:51.197Z,16.90
2022-07-27T10:07:03.107Z,16.94
2022-07-27T10:07:52.572Z,17.15
2022-07-27T10:08:52.264Z,17.26
2022-07-27T10:09:52.457Z,17.27
2022-07-27T10:10:52.636Z,17.48
2022-07-27T10:11:52.827Z,17.79
2022-07-27T10:12:55.617Z,17.82
2022-07-27T10:13:51.746Z,17.83
2022-07-27T10:14:53.928Z,17.86
2022-07-27T10:15:54.186Z,17.86
2022-07-27T10:16:54.300Z,18.00
2022-07-27T10:17:55.185Z,18.04
2022-07-27T10:18:55.770Z,18.20
2022-07-27T10:19:55.195Z,18.23
2022-07-27T10:20:53.512Z,18.38
2022-07-27T10:21:55.669Z,18.16
2022-07-27T10:22:55.857Z,18.40
2022-07-27T10:23:54.292Z,18.70
2022-07-27T10:24:56.482Z,18.78
2022-07-27T10:25:56.639Z,18.53
2022-07-27T10:26:56.820Z,18.43
2022-07-27T10:27:57.003Z,18.44
2022-07-27T10:28:55.724Z,18.28
2022-07-27T10:29:55.961Z,18.11
2022-07-27T10:30:56.219Z,17.85
2022-07-27T10:31:58.382Z,17.74
2022-07-27T10:32:58.558Z,18.01
2022-07-27T10:33:59.011Z,18.07
2022-07-27T10:34:58.924Z,18.05
2022-07-27T10:35:59.108Z,18.60
2022-07-27T10:36:57.775Z,18.68
2022-07-27T10:37:59.960Z,18.55
2022-07-27T10:39:00.323Z,18.98
2022-07-27T10:40:00.339Z,18.99
2022-07-27T10:41:00.518Z,18.93
2022-07-27T10:41:59.196Z,18.95
2022-07-27T10:43:01.384Z,19.04
2022-07-27T10:44:00.611Z,18.65
2022-07-27T10:45:01.488Z,18.11
2022-07-27T10:46:03.072Z,18.04
2022-07-27T10:47:00.438Z,17.89
2022-07-27T10:48:02.625Z,17.76
2022-07-27T10:49:04.057Z,17.71
2022-07-27T10:50:01.220Z,17.60
2022-07-27T10:51:03.380Z,17.63
2022-07-27T10:52:03.606Z,17.42
2022-07-27T10:53:03.721Z,17.15
2022-07-27T10:54:12.290Z,17.09
2022-07-27T10:55:03.421Z,17.19
2022-07-27T10:56:04.602Z,17.33
2022-07-27T10:57:03.051Z,17.33
2022-07-27T10:58:05.225Z,17.24
2022-07-27T10:59:04.556Z,17.20
2022-07-27T11:00:09.408Z,17.14
2022-07-27T11:01:05.148Z,17.12
2022-07-27T11:02:04.401Z,17.31
2022-07-27T11:03:06.101Z,17.29
2022-07-27T11:04:05.919Z,17.15
2022-07-27T11:05:05.179Z,17.27
2022-07-27T11:06:30.585Z,17.46
2022-07-27T11:07:24.373Z,17.74
2022-07-27T11:08:36.510Z,17.78
2022-07-27T11:10:00.151Z,17.65
2022-07-27T11:10:07.754Z,17.83
2022-07-27T11:11:06.678Z,17.83
2022-07-27T11:12:06.922Z,17.94
2022-07-27T11:13:09.826Z,17.82
2022-07-27T11:14:11.126Z,18.00
2022-07-27T11:15:07.740Z,17.98
2022-07-27T11:16:25.769Z,18.19
2022-07-27T11:17:52.393Z,18.38
2022-07-27T11:18:09.521Z,18.63
2022-07-27T11:19:12.672Z,18.83
2022-07-27T11:20:09.099Z,18.86
2022-07-27T11:21:09.306Z,19.08
2022-07-27T11:22:28.308Z,19.21
2022-07-27T11:24:15.352Z,19.09
2022-07-27T11:25:10.339Z,19.14
2022-07-27T11:26:11.425Z,19.18
2022-07-27T11:27:16.915Z,19.27
2022-07-27T11:28:12.122Z,19.07
2022-07-27T11:29:15.650Z,18.59
2022-07-27T11:30:13.512Z,18.58
2022-07-27T11:31:12.030Z,18.45
2022-07-27T11:32:12.252Z,18.66
2022-07-27T11:33:12.490Z,18.65
2022-07-27T11:34:14.971Z,18.75
2022-07-27T11:35:19.362Z,18.74
2022-07-27T11:36:16.057Z,18.58
2022-07-27T11:37:13.500Z,18.33
2022-07-27T11:38:13.752Z,18.34
2022-07-27T11:39:19.681Z,18.00
2022-07-27T11:40:53.668Z,17.87
2022-07-27T11:41:29.255Z,17.76
2022-07-27T11:42:18.559Z,17.80
2022-07-27T11:43:15.710Z,17.94
2022-07-27T11:44:17.518Z,17.70
2022-07-27T11:45:15.681Z,17.76
2022-07-27T11:46:17.933Z,17.82
2022-07-27T11:47:18.048Z,17.72
2022-07-27T11:48:16.482Z,17.65
2022-07-27T11:49:18.901Z,17.57
2022-07-27T11:50:16.970Z,17.56
2022-07-27T11:51:19.143Z,17.74
2022-07-27T11:52:19.331Z,17.60
2022-07-27T11:53:18.561Z,17.57
2022-07-27T11:54:18.004Z,17.63
2022-07-27T11:55:18.231Z,17.83
2022-07-27T11:56:20.417Z,17.65
2022-07-27T11:57:20.803Z,17.68
2022-07-27T11:58:19.012Z,17.72
2022-07-27T11:59:19.729Z,17.59
2022-07-27T12:00:19.557Z,17.74
2022-07-27T12:01:19.795Z,17.82
2022-07-27T12:02:23.465Z,17.82
2022-07-27T12:03:22.210Z,17.82
2022-07-27T12:04:21.624Z,17.94
2022-07-27T12:05:21.823Z,18.25
2022-07-27T12:06:21.218Z,18.80
2022-07-27T12:07:23.392Z,18.98
2022-07-27T12:08:22.499Z,19.02
2022-07-27T12:09:23.907Z,19.14
2022-07-27T12:10:22.210Z,18.89
2022-07-27T12:11:26.037Z,18.75
2022-07-27T12:12:27.077Z,18.90
2022-07-27T12:13:23.813Z,18.86
2022-07-27T12:14:26.640Z,18.71
2022-07-27T12:16:26.834Z,18.50
2022-07-27T12:17:27.396Z,18.22
2022-07-27T12:18:25.387Z,17.95
2022-07-27T12:19:27.987Z,17.80
2022-07-27T12:20:25.957Z,17.74
2022-07-27T12:21:27.127Z,17.60
2022-07-27T12:22:27.314Z,17.71
2022-07-27T12:23:27.529Z,17.72
2022-07-27T12:24:26.093Z,17.67
2022-07-27T12:25:28.283Z,17.71
2022-07-27T12:26:29.903Z,17.64
2022-07-27T12:27:28.616Z,17.64
2022-07-27T12:28:31.490Z,17.56
2022-07-27T12:29:27.445Z,17.65
2022-07-27T12:30:27.714Z,17.70
2022-07-27T12:31:29.890Z,17.71
2022-07-27T12:32:28.193Z,17.60
2022-07-27T12:33:32.325Z,17.57
2022-07-27T12:34:30.547Z,17.44
2022-07-27T12:35:34.250Z,17.30
2022-07-27T12:36:32.163Z,17.15
2022-07-27T12:37:29.490Z,17.19
2022-07-27T12:38:30.627Z,17.12
2022-07-27T12:39:31.969Z,17.02
2022-07-27T12:40:32.166Z,16.97
2022-07-27T12:41:32.307Z,16.90
2022-07-27T12:42:32.999Z,16.76
2022-07-27T12:43:34.665Z,16.60
2022-07-27T12:44:33.401Z,16.43
2022-07-27T12:45:33.643Z,16.35
2022-07-27T12:46:34.347Z,16.39
2022-07-27T12:47:34.441Z,16.41
2022-07-27T12:48:34.677Z,16.56
2022-07-27T12:49:34.828Z,16.75
2022-07-27T12:50:35.006Z,16.96
2022-07-27T12:51:35.681Z,17.20
2022-07-27T12:52:35.876Z,17.45
2022-07-27T12:53:37.409Z,17.95
2022-07-27T12:54:36.287Z,18.16
2022-07-27T12:55:34.837Z,18.18
2022-07-27T12:56:37.034Z,18.22
2022-07-27T12:57:54.641Z,18.16
2022-07-27T12:58:36.595Z,18.29
2022-07-27T12:59:35.898Z,18.35